Pagina principale
METAR-TAF:

METAR-TAF

Aeroporti :

Aeroporto di Chambéry Savoia

Chambery / Aix-Les-Bains, Francia

latitudine: 45-39N, longitudine: 005-53E, altezza: 235 m

Osservazione

Il bollettino è stato emesso 37 minuti fa, alle 13:00 UTC
Vento 5 kt da nord/nord-ovest, variando fra nord-ovest e nord
Temperature 35°C
Umidità 32%
Pressione 1018 hPa
Visibilità 10 km o più
nessuna nube inferiore a 1500 m e nessun cumulonembo

METAR: LFLB 231300Z AUTO 34005KT 310V010 CAVOK 35/16 Q1018 NOSIG

Ora: 15:37 (13:37 UTC)

Previsione

Il bollettino è stato emesso 2 ore e 37 minuti fa, alle 11:00 UTC
Previsione valida dal 23 alle 12 UTC al 24 alle 12 UTC
Vento 6 kt da nord
Visibilità 10 km o più
nessuna nube inferiore a 1500 m e nessun cumulonembo
Temporaneamente
dal 23 alle 20 UTC al 24 alle 10 UTC
Vento 5 kt da sud/sud-est

TAF: LFLB 231100Z 2312/2412 36006KT CAVOK TEMPO 2320/2410 16005KT

Osservazioni e previsioni meteorologiche di più di 4000 aeroporti (messaggi METAR e TAF).

Le stazioni disponibili sono rappresentate dai dischi gialli e rossi sulla carta.

Puntare il mouse per vedere il nome della stazione.

Clicca sopra per visualizzare le osservazioni e previsioni meteorologiche.

Per cambiare la mappa : fare clic sui pulsanti verdi con una croce nera per ingrandire, il pulsante verde con un trattino per diminuire, o sulla freccia verde per le mappe adiacenti.


METAR-TAF: